createdAt,value
2023-08-30T00:02:04.835Z,10.47
2023-08-30T00:04:50.774Z,10.46
2023-08-30T00:07:36.327Z,10.47
2023-08-30T00:10:21.648Z,10.45
2023-08-30T00:13:07.173Z,10.42
2023-08-30T00:15:52.612Z,10.41
2023-08-30T00:18:38.194Z,10.38
2023-08-30T00:21:23.549Z,10.35
2023-08-30T00:24:09.197Z,10.37
2023-08-30T00:26:54.683Z,10.34
2023-08-30T00:29:40.345Z,10.30
2023-08-30T00:32:25.949Z,10.29
2023-08-30T00:35:11.485Z,10.27
2023-08-30T00:37:57.193Z,10.25
2023-08-30T00:40:43.029Z,10.24
2023-08-30T00:43:29.237Z,10.28
2023-08-30T00:46:15.443Z,10.30
2023-08-30T00:49:01.968Z,10.35
2023-08-30T00:51:47.660Z,10.37
2023-08-30T00:54:33.463Z,10.37
2023-08-30T00:57:19.237Z,10.36
2023-08-30T01:00:07.432Z,10.35
2023-08-30T01:02:52.964Z,10.35
2023-08-30T01:05:40.048Z,10.37
2023-08-30T01:08:25.744Z,10.38
2023-08-30T01:11:25.436Z,10.40
2023-08-30T01:14:20.009Z,10.41
2023-08-30T01:17:06.989Z,10.43
2023-08-30T01:19:57.016Z,10.46
2023-08-30T01:23:17.272Z,10.50
2023-08-30T01:26:37.707Z,10.55
2023-08-30T01:29:24.750Z,10.58
2023-08-30T01:32:11.334Z,10.62
2023-08-30T01:34:58.402Z,10.67
2023-08-30T01:37:47.091Z,10.67
2023-08-30T01:40:37.903Z,10.71
2023-08-30T01:43:24.324Z,10.73
2023-08-30T01:46:11.577Z,10.74
2023-08-30T01:48:57.447Z,10.76
2023-08-30T01:51:42.773Z,10.77
2023-08-30T01:54:29.506Z,10.80
2023-08-30T01:57:15.225Z,10.82
2023-08-30T02:00:00.749Z,10.82
2023-08-30T02:02:47.420Z,10.86
2023-08-30T02:05:34.452Z,10.87
2023-08-30T02:08:23.348Z,10.87
2023-08-30T02:11:15.092Z,10.89
2023-08-30T02:14:02.175Z,10.87
2023-08-30T02:16:49.639Z,10.87
2023-08-30T02:19:35.528Z,10.86
2023-08-30T02:22:21.127Z,10.81
2023-08-30T02:25:07.598Z,10.76
2023-08-30T02:27:53.320Z,10.73
2023-08-30T02:30:38.923Z,10.69
2023-08-30T02:33:24.347Z,10.66
2023-08-30T02:36:10.045Z,10.64
2023-08-30T02:38:55.835Z,10.59
2023-08-30T02:41:41.538Z,10.56
2023-08-30T02:44:27.257Z,10.54
2023-08-30T02:47:12.599Z,10.52
2023-08-30T02:49:58.082Z,10.48
2023-08-30T02:52:43.449Z,10.47
2023-08-30T02:55:28.688Z,10.41
2023-08-30T02:58:14.144Z,10.43
2023-08-30T03:01:01.742Z,10.42
2023-08-30T03:03:48.002Z,10.40
2023-08-30T03:06:36.972Z,10.37
2023-08-30T03:09:22.926Z,10.32
2023-08-30T03:12:08.263Z,10.29
2023-08-30T03:14:55.471Z,10.26
2023-08-30T03:17:41.814Z,10.23
2023-08-30T03:20:29.318Z,10.21
2023-08-30T03:23:14.759Z,10.18
2023-08-30T03:26:01.239Z,10.20
2023-08-30T03:28:47.533Z,10.16
2023-08-30T03:31:33.232Z,10.15
2023-08-30T03:34:19.016Z,10.13
2023-08-30T03:37:05.190Z,10.09
2023-08-30T03:39:50.458Z,10.08
2023-08-30T03:42:35.930Z,10.09
2023-08-30T03:45:23.028Z,10.08
2023-08-30T03:48:08.957Z,10.09
2023-08-30T03:50:55.985Z,10.09
2023-08-30T03:53:41.532Z,10.10
2023-08-30T03:56:26.773Z,10.10
2023-08-30T03:59:15.590Z,10.11
2023-08-30T04:02:01.742Z,10.09
2023-08-30T04:04:49.473Z,10.09
2023-08-30T04:07:35.096Z,10.09
2023-08-30T04:10:22.038Z,10.09
2023-08-30T04:13:08.880Z,10.10
2023-08-30T04:15:54.495Z,10.08
2023-08-30T04:18:40.246Z,10.05
2023-08-30T04:21:25.675Z,10.04
2023-08-30T04:24:11.050Z,10.01
2023-08-30T04:26:57.495Z,9.98
2023-08-30T04:29:46.212Z,9.97
2023-08-30T04:32:31.909Z,9.94
2023-08-30T04:35:17.237Z,9.95
2023-08-30T04:38:04.381Z,9.94
2023-08-30T04:40:50.051Z,9.93
2023-08-30T04:43:35.422Z,9.89
2023-08-30T04:46:22.310Z,9.87
2023-08-30T04:49:07.736Z,9.85
2023-08-30T04:51:53.211Z,9.82
2023-08-30T04:54:38.663Z,9.80
2023-08-30T04:57:24.146Z,9.80
2023-08-30T05:00:10.339Z,9.83
2023-08-30T05:02:55.949Z,9.80
2023-08-30T05:05:45.533Z,9.77
2023-08-30T05:08:31.225Z,9.74
2023-08-30T05:11:17.164Z,9.72
2023-08-30T05:14:03.066Z,9.69
2023-08-30T05:16:51.831Z,9.70
2023-08-30T05:19:38.620Z,9.71
2023-08-30T05:22:24.510Z,9.72
2023-08-30T05:25:10.070Z,9.69
2023-08-30T05:27:55.808Z,9.68
2023-08-30T05:30:43.881Z,9.66
2023-08-30T05:33:43.945Z,9.68
2023-08-30T05:36:48.409Z,9.67
2023-08-30T05:39:44.045Z,9.66
2023-08-30T05:42:29.493Z,9.66
2023-08-30T05:45:15.452Z,9.67
2023-08-30T05:48:01.499Z,9.67
2023-08-30T05:50:49.578Z,9.66
2023-08-30T05:53:35.054Z,9.65
2023-08-30T05:56:20.447Z,9.64
2023-08-30T05:59:06.850Z,9.65
2023-08-30T06:01:52.436Z,9.62
2023-08-30T06:04:38.011Z,9.61
2023-08-30T06:07:23.559Z,9.63
2023-08-30T06:10:09.481Z,9.67
2023-08-30T06:12:55.146Z,9.75
2023-08-30T06:15:40.875Z,9.84
2023-08-30T06:18:30.636Z,9.91
2023-08-30T06:21:16.298Z,10.01
2023-08-30T06:24:01.717Z,10.09
2023-08-30T06:26:47.238Z,10.20
2023-08-30T06:29:32.650Z,10.31
2023-08-30T06:32:18.567Z,10.38
2023-08-30T06:35:05.376Z,10.46
2023-08-30T06:37:51.141Z,10.54
2023-08-30T06:40:37.281Z,10.63
2023-08-30T06:43:22.670Z,10.74
2023-08-30T06:46:08.264Z,10.84
2023-08-30T06:48:53.676Z,10.91
2023-08-30T06:51:39.287Z,10.98
2023-08-30T06:54:25.095Z,11.03
2023-08-30T06:57:10.573Z,11.09
2023-08-30T06:59:56.543Z,11.13
2023-08-30T07:02:46.144Z,11.19
2023-08-30T07:05:31.832Z,11.25
2023-08-30T07:08:17.294Z,11.28
2023-08-30T07:11:02.954Z,11.32
2023-08-30T07:13:48.569Z,11.34
2023-08-30T07:16:34.147Z,11.39
2023-08-30T07:19:19.580Z,11.47
2023-08-30T07:22:05.539Z,11.59
2023-08-30T07:24:51.120Z,11.78
2023-08-30T07:27:39.866Z,11.98
2023-08-30T07:30:25.591Z,12.20
2023-08-30T07:33:11.360Z,12.38
2023-08-30T07:35:56.814Z,12.55
2023-08-30T07:38:42.416Z,12.65
2023-08-30T07:41:28.794Z,12.74
2023-08-30T07:44:14.531Z,12.86
2023-08-30T07:47:00.145Z,12.90
2023-08-30T07:49:45.565Z,12.90
2023-08-30T07:52:43.757Z,12.89
2023-08-30T07:55:31.634Z,12.93
2023-08-30T07:58:18.815Z,12.96
2023-08-30T08:01:04.686Z,12.98
2023-08-30T08:04:04.476Z,13.01
2023-08-30T08:06:56.922Z,13.03
2023-08-30T08:09:42.648Z,13.04
2023-08-30T08:12:28.610Z,13.07
2023-08-30T08:15:14.286Z,13.09
2023-08-30T08:18:01.932Z,13.09
2023-08-30T08:20:47.237Z,13.12
2023-08-30T08:23:32.829Z,13.15
2023-08-30T08:26:18.375Z,13.26
2023-08-30T08:29:05.033Z,13.35
2023-08-30T08:31:50.788Z,13.40
2023-08-30T08:34:36.186Z,13.47
2023-08-30T08:37:21.826Z,13.51
2023-08-30T08:40:10.138Z,13.57
2023-08-30T08:42:57.432Z,13.72
2023-08-30T08:45:43.961Z,13.82
2023-08-30T08:48:30.580Z,13.95
2023-08-30T08:51:16.810Z,14.10
2023-08-30T08:54:05.073Z,14.22
2023-08-30T08:56:51.274Z,14.30
2023-08-30T08:59:37.178Z,14.34
2023-08-30T09:02:23.403Z,14.44
2023-08-30T09:05:09.509Z,14.39
2023-08-30T09:07:56.010Z,14.39
2023-08-30T09:10:42.162Z,14.46
2023-08-30T09:13:27.542Z,14.56
2023-08-30T09:16:16.648Z,14.69
2023-08-30T09:19:10.203Z,14.76
2023-08-30T09:21:58.455Z,14.86
2023-08-30T09:24:44.246Z,14.96
2023-08-30T09:27:34.819Z,14.94
2023-08-30T09:30:23.606Z,14.96
2023-08-30T09:33:09.663Z,14.99
2023-08-30T09:35:55.435Z,15.00
2023-08-30T09:38:40.900Z,15.01
2023-08-30T09:41:26.485Z,15.06
2023-08-30T09:44:14.650Z,15.22
2023-08-30T09:47:01.488Z,15.35
2023-08-30T09:49:47.494Z,15.41
2023-08-30T09:52:35.234Z,15.56
2023-08-30T09:55:22.675Z,15.51
2023-08-30T09:58:09.168Z,15.58
2023-08-30T10:00:54.846Z,15.55
2023-08-30T10:03:41.760Z,15.52
2023-08-30T10:06:27.574Z,15.57
2023-08-30T10:09:14.916Z,15.59
2023-08-30T10:12:04.214Z,15.67
2023-08-30T10:14:49.854Z,15.77
2023-08-30T10:17:36.811Z,15.87
2023-08-30T10:20:22.798Z,15.92
2023-08-30T10:23:10.276Z,16.01
2023-08-30T10:25:56.853Z,16.09
2023-08-30T10:28:43.354Z,16.25
2023-08-30T10:31:31.185Z,16.36
2023-08-30T10:34:18.311Z,16.20
2023-08-30T10:37:07.456Z,16.14
2023-08-30T10:39:53.494Z,16.12
2023-08-30T10:42:38.881Z,16.19
2023-08-30T10:45:25.345Z,16.21
2023-08-30T10:48:12.334Z,16.15
2023-08-30T10:50:58.908Z,16.00
2023-08-30T10:53:44.624Z,15.89
2023-08-30T10:56:32.082Z,15.98
2023-08-30T10:59:22.231Z,16.19
2023-08-30T11:02:08.301Z,16.40
2023-08-30T11:04:53.952Z,16.53
2023-08-30T11:07:39.527Z,16.64
2023-08-30T11:10:25.177Z,16.76
2023-08-30T11:13:10.700Z,16.83
2023-08-30T11:16:01.329Z,16.71
2023-08-30T11:18:46.946Z,16.50
2023-08-30T11:21:34.936Z,16.35
2023-08-30T11:24:20.322Z,16.34
2023-08-30T11:27:06.001Z,16.35
2023-08-30T11:29:52.166Z,16.43
2023-08-30T11:32:40.215Z,16.56
2023-08-30T11:35:25.969Z,16.78
2023-08-30T11:38:11.629Z,16.96
2023-08-30T11:40:58.092Z,17.07
2023-08-30T11:43:44.384Z,17.02
2023-08-30T11:46:31.389Z,17.18
2023-08-30T11:49:17.583Z,17.41
2023-08-30T11:52:03.925Z,17.64
2023-08-30T11:54:50.527Z,17.73
2023-08-30T11:57:37.456Z,17.80
2023-08-30T12:00:23.359Z,17.81
2023-08-30T12:03:09.096Z,17.78
2023-08-30T12:05:55.517Z,17.61
2023-08-30T12:08:41.146Z,17.56
2023-08-30T12:11:26.440Z,17.56
2023-08-30T12:14:12.150Z,17.56
2023-08-30T12:17:01.214Z,17.48
2023-08-30T12:19:46.873Z,17.61
2023-08-30T12:22:41.498Z,17.76
2023-08-30T12:25:28.228Z,17.85
2023-08-30T12:28:14.168Z,17.76
2023-08-30T12:31:01.730Z,17.63
2023-08-30T12:33:47.798Z,17.46
2023-08-30T12:36:33.192Z,17.39
2023-08-30T12:39:18.522Z,17.33
2023-08-30T12:42:04.284Z,17.30
2023-08-30T12:44:50.026Z,17.22
2023-08-30T12:47:35.627Z,17.09
2023-08-30T12:50:23.054Z,17.00
2023-08-30T12:53:09.337Z,16.93
2023-08-30T12:55:55.027Z,16.99
2023-08-30T12:58:40.553Z,17.07
2023-08-30T13:01:26.113Z,17.00
2023-08-30T13:04:11.716Z,16.93
2023-08-30T13:06:57.167Z,16.83
2023-08-30T13:09:42.632Z,16.83
2023-08-30T13:12:28.194Z,16.86
2023-08-30T13:15:13.464Z,16.92
2023-08-30T13:17:58.972Z,16.88
2023-08-30T13:20:44.742Z,16.74
2023-08-30T13:23:30.125Z,16.64
2023-08-30T13:26:15.520Z,16.52
2023-08-30T13:29:03.435Z,16.42
2023-08-30T13:31:48.859Z,16.40
2023-08-30T13:34:34.380Z,16.44
2023-08-30T13:37:20.093Z,16.53
2023-08-30T13:40:07.248Z,16.61
2023-08-30T13:42:52.642Z,16.65
2023-08-30T13:45:38.056Z,16.69
2023-08-30T13:48:23.496Z,16.74
2023-08-30T13:51:08.853Z,16.75
2023-08-30T13:53:54.777Z,16.89
2023-08-30T13:56:40.162Z,17.13
2023-08-30T13:59:25.666Z,17.36
2023-08-30T14:02:11.092Z,17.51
2023-08-30T14:04:56.514Z,17.59
2023-08-30T14:07:41.922Z,17.66
2023-08-30T14:10:27.246Z,17.76
2023-08-30T14:13:12.977Z,17.75
2023-08-30T14:15:58.465Z,17.76
2023-08-30T14:18:44.533Z,17.81
2023-08-30T14:21:30.472Z,17.76
2023-08-30T14:24:16.084Z,17.77
2023-08-30T14:27:02.215Z,17.76
2023-08-30T14:29:47.492Z,17.84
2023-08-30T14:32:33.097Z,17.99
2023-08-30T14:35:21.968Z,18.18
2023-08-30T14:38:07.422Z,18.45
2023-08-30T14:40:57.475Z,18.48
2023-08-30T14:43:44.432Z,18.26
2023-08-30T14:46:30.433Z,17.98
2023-08-30T14:49:16.003Z,17.90
2023-08-30T14:52:01.444Z,17.97
2023-08-30T14:54:46.841Z,18.10
2023-08-30T14:57:32.303Z,18.18
2023-08-30T15:00:17.978Z,18.19
2023-08-30T15:03:04.436Z,18.28
2023-08-30T15:05:57.335Z,18.28
2023-08-30T15:08:44.038Z,18.27
2023-08-30T15:11:29.540Z,18.22
2023-08-30T15:14:14.810Z,18.17
2023-08-30T15:17:00.410Z,18.03
2023-08-30T15:19:45.779Z,17.93
2023-08-30T15:22:31.233Z,17.76
2023-08-30T15:25:16.858Z,17.67
2023-08-30T15:28:02.227Z,17.53
2023-08-30T15:30:49.963Z,17.45
2023-08-30T15:33:35.628Z,17.42
2023-08-30T15:36:20.967Z,17.40
2023-08-30T15:39:06.723Z,17.39
2023-08-30T15:41:52.348Z,17.36
2023-08-30T15:44:38.328Z,17.38
2023-08-30T15:47:23.751Z,17.29
2023-08-30T15:50:09.356Z,17.26
2023-08-30T15:52:55.174Z,17.28
2023-08-30T15:55:40.510Z,17.25
2023-08-30T15:58:25.974Z,17.25
2023-08-30T16:01:11.407Z,17.18
2023-08-30T16:03:56.829Z,17.09
2023-08-30T16:06:43.399Z,17.08
2023-08-30T16:09:28.662Z,17.04
2023-08-30T16:12:14.192Z,17.04
2023-08-30T16:14:59.654Z,17.01
2023-08-30T16:17:45.581Z,16.98
2023-08-30T16:20:32.004Z,16.89
2023-08-30T16:23:17.364Z,16.83
2023-08-30T16:26:02.834Z,16.78
2023-08-30T16:28:48.263Z,16.70
2023-08-30T16:31:33.857Z,16.70
2023-08-30T16:34:22.709Z,16.70
2023-08-30T16:37:08.435Z,16.70
2023-08-30T16:39:55.314Z,16.75
2023-08-30T16:42:41.038Z,16.74
2023-08-30T16:45:26.388Z,16.69
2023-08-30T16:48:13.495Z,16.64
2023-08-30T16:50:59.626Z,16.62
2023-08-30T16:53:45.584Z,16.59
2023-08-30T16:56:31.519Z,16.55
2023-08-30T16:59:16.960Z,16.53
2023-08-30T17:02:04.703Z,16.54
2023-08-30T17:04:50.540Z,16.52
2023-08-30T17:07:35.831Z,16.54
2023-08-30T17:10:24.170Z,16.58
2023-08-30T17:13:10.679Z,16.63
2023-08-30T17:15:59.238Z,16.67
2023-08-30T17:18:44.754Z,16.72
2023-08-30T17:21:30.258Z,16.77
2023-08-30T17:24:15.711Z,16.82
2023-08-30T17:27:04.317Z,16.83
2023-08-30T17:29:49.838Z,16.75
2023-08-30T17:32:35.266Z,16.67
2023-08-30T17:35:20.538Z,16.55
2023-08-30T17:38:05.961Z,16.38
2023-08-30T17:40:51.229Z,16.23
2023-08-30T17:43:37.887Z,16.09
2023-08-30T17:46:23.498Z,15.94
2023-08-30T17:49:10.417Z,15.84
2023-08-30T17:51:57.216Z,15.73
2023-08-30T17:54:42.631Z,15.66
2023-08-30T17:57:28.363Z,15.59
2023-08-30T18:00:15.571Z,15.54
2023-08-30T18:03:01.606Z,15.51
2023-08-30T18:05:47.098Z,15.46
2023-08-30T18:08:32.586Z,15.43
2023-08-30T18:11:20.981Z,15.39
2023-08-30T18:14:06.745Z,15.36
2023-08-30T18:16:52.046Z,15.35
2023-08-30T18:19:37.450Z,15.34
2023-08-30T18:22:23.824Z,15.32
2023-08-30T18:25:10.439Z,15.27
2023-08-30T18:27:56.997Z,15.23
2023-08-30T18:30:42.415Z,15.17
2023-08-30T18:33:27.933Z,15.09
2023-08-30T18:36:13.373Z,15.00
2023-08-30T18:38:58.732Z,14.91
2023-08-30T18:41:44.549Z,14.81
2023-08-30T18:44:31.005Z,14.73
2023-08-30T18:47:20.626Z,14.67
2023-08-30T18:50:06.825Z,14.62
2023-08-30T18:52:52.906Z,14.57
2023-08-30T18:55:38.300Z,14.54
2023-08-30T18:58:23.766Z,14.49
2023-08-30T19:01:09.323Z,14.40
2023-08-30T19:03:54.549Z,14.34
2023-08-30T19:06:40.085Z,14.29
2023-08-30T19:09:25.504Z,14.24
2023-08-30T19:12:10.994Z,14.19
2023-08-30T19:14:56.220Z,14.13
2023-08-30T19:17:42.327Z,14.05
2023-08-30T19:20:29.660Z,14.00
2023-08-30T19:23:15.111Z,13.92
2023-08-30T19:26:01.850Z,13.87
2023-08-30T19:28:48.771Z,13.81
2023-08-30T19:31:39.127Z,13.78
2023-08-30T19:34:25.462Z,13.66
2023-08-30T19:37:11.324Z,13.57
2023-08-30T19:39:57.257Z,13.45
2023-08-30T19:42:43.633Z,13.33
2023-08-30T19:45:29.124Z,13.24
2023-08-30T19:48:14.904Z,13.14
2023-08-30T19:51:01.034Z,13.07
2023-08-30T19:53:50.171Z,13.02
2023-08-30T19:56:35.406Z,12.97
2023-08-30T19:59:20.850Z,12.94
2023-08-30T20:02:07.423Z,12.90
2023-08-30T20:04:53.480Z,12.87
2023-08-30T20:07:39.485Z,12.82
2023-08-30T20:10:25.319Z,12.80
2023-08-30T20:13:12.082Z,12.79
2023-08-30T20:16:02.202Z,12.78
2023-08-30T20:18:47.593Z,12.75
2023-08-30T20:21:34.004Z,12.74
2023-08-30T20:24:20.404Z,12.72
2023-08-30T20:27:05.957Z,12.67
2023-08-30T20:29:51.402Z,12.65
2023-08-30T20:32:37.045Z,12.63
2023-08-30T20:35:23.704Z,12.63
2023-08-30T20:38:11.358Z,12.63
2023-08-30T20:40:56.829Z,12.61
2023-08-30T20:43:42.200Z,12.64
2023-08-30T20:46:27.760Z,12.64
2023-08-30T20:49:13.255Z,12.64
2023-08-30T20:51:58.685Z,12.65
2023-08-30T20:54:44.085Z,12.65
2023-08-30T20:57:29.402Z,12.65
2023-08-30T21:00:15.186Z,12.65
2023-08-30T21:03:05.158Z,12.63
2023-08-30T21:05:54.194Z,12.63
2023-08-30T21:08:39.781Z,12.61
2023-08-30T21:11:25.558Z,12.61
2023-08-30T21:14:10.959Z,12.58
2023-08-30T21:16:56.464Z,12.58
2023-08-30T21:19:42.094Z,12.58
2023-08-30T21:22:27.600Z,12.61
2023-08-30T21:25:13.132Z,12.64
2023-08-30T21:27:58.742Z,12.65
2023-08-30T21:30:45.677Z,12.65
2023-08-30T21:33:31.263Z,12.65
2023-08-30T21:36:16.526Z,12.66
2023-08-30T21:39:13.421Z,12.67
2023-08-30T21:41:59.149Z,12.68
2023-08-30T21:44:44.548Z,12.69
2023-08-30T21:47:29.942Z,12.69
2023-08-30T21:50:15.548Z,12.68
2023-08-30T21:53:01.859Z,12.69
2023-08-30T21:55:47.705Z,12.72
2023-08-30T21:58:33.498Z,12.71
2023-08-30T22:01:18.831Z,12.70
2023-08-30T22:04:06.705Z,12.70
2023-08-30T22:06:52.484Z,12.70
2023-08-30T22:09:38.242Z,12.71
2023-08-30T22:12:24.173Z,12.73
2023-08-30T22:15:15.862Z,12.76
2023-08-30T22:18:01.536Z,12.79
2023-08-30T22:20:46.896Z,12.80
2023-08-30T22:23:32.609Z,12.81
2023-08-30T22:26:18.003Z,12.82
2023-08-30T22:29:04.023Z,12.83
2023-08-30T22:31:49.781Z,12.83
2023-08-30T22:34:36.018Z,12.83
2023-08-30T22:37:21.954Z,12.81
2023-08-30T22:40:09.615Z,12.81
2023-08-30T22:42:55.471Z,12.78
2023-08-30T22:45:40.894Z,12.76
2023-08-30T22:48:26.272Z,12.74
2023-08-30T22:51:11.670Z,12.74
2023-08-30T22:53:57.583Z,12.75
2023-08-30T22:56:43.388Z,12.78
2023-08-30T22:59:29.446Z,12.80
2023-08-30T23:02:15.704Z,12.82
2023-08-30T23:05:07.332Z,12.81
2023-08-30T23:07:52.992Z,12.80
2023-08-30T23:10:38.549Z,12.78
2023-08-30T23:13:24.459Z,12.75
2023-08-30T23:16:10.092Z,12.78
2023-08-30T23:18:55.599Z,12.77
2023-08-30T23:21:41.080Z,12.74
2023-08-30T23:24:26.898Z,12.71
2023-08-30T23:27:12.316Z,12.68
2023-08-30T23:29:57.859Z,12.65
2023-08-30T23:32:44.376Z,12.63
2023-08-30T23:35:33.657Z,12.61
2023-08-30T23:38:19.441Z,12.59
2023-08-30T23:41:05.453Z,12.57
2023-08-30T23:43:50.962Z,12.55
2023-08-30T23:46:36.265Z,12.53
2023-08-30T23:49:21.772Z,12.51
2023-08-30T23:52:07.291Z,12.49
2023-08-30T23:54:57.104Z,12.49
2023-08-30T23:57:42.483Z,12.50
